Time;durP1;ratioP1;P1;durP2;ratioP2;P2;SDS_P1;SDS_P2;PMS_P1;PMS_P2;Temp;Humidity;BMP_temperature;BMP_pressure;BME280_temperature;BME280_humidity;BME280_pressure;Samples;Min_cycle;Max_cycle;Signal;HPM_P1;HPM_P2
2024/03/06 00:00:58;;;;;;;75.20;33.80;;;;;;;;;;5039097;28;20021;-64
2024/03/06 00:03:24;;;;;;;82.38;35.63;;;;;;;;;;5038815;28;20261;-64
2024/03/06 00:05:51;;;;;;;81.88;36.35;;;5.10;99.90;;;;;;5037098;28;20064;-64
2024/03/06 00:08:17;;;;;;;79.25;36.30;;;;;;;;;;5030122;28;20033;-64
2024/03/06 00:10:45;;;;;;;80.30;34.33;;;5.20;99.90;;;;;;5037814;28;20099;-64
2024/03/06 00:13:10;;;;;;;81.57;35.30;;;5.20;99.90;;;;;;5026039;28;20030;-69
2024/03/06 00:15:36;;;;;;;81.20;35.17;;;;;;;;;;5027387;28;20029;-67
2024/03/06 00:18:03;;;;;;;68.40;30.88;;;;;;;;;;5019452;28;20057;-69
2024/03/06 00:20:29;;;;;;;72.07;33.63;;;;;;;;;;5019215;28;20037;-68
2024/03/06 00:22:55;;;;;;;78.35;34.58;;;5.30;99.90;;;;;;5021728;28;20038;-68
2024/03/06 00:25:22;;;;;;;82.13;34.63;;;;;;;;;;5019110;28;20265;-70
2024/03/06 00:27:47;;;;;;;83.38;35.28;;;5.30;99.90;;;;;;5019232;28;20030;-69
2024/03/06 00:30:13;;;;;;;79.82;34.78;;;;;;;;;;5019363;28;20033;-69
2024/03/06 00:32:39;;;;;;;78.07;34.10;;;;;;;;;;5035073;28;20029;-69
2024/03/06 00:35:06;;;;;;;85.10;35.53;;;;;;;;;;5018866;28;20057;-68
2024/03/06 00:37:31;;;;;;;89.80;36.05;;;5.30;99.90;;;;;;5019168;28;20378;-69
2024/03/06 00:39:57;;;;;;;79.00;34.47;;;;;;;;;;5019292;28;20318;-69
2024/03/06 00:42:23;;;;;;;76.80;32.60;;;;;;;;;;5018885;28;20026;-69
2024/03/06 00:44:50;;;;;;;79.10;33.28;;;;;;;;;;5018748;28;20341;-69
2024/03/06 00:47:16;;;;;;;87.07;34.33;;;;;;;;;;5019182;28;20536;-68
2024/03/06 00:49:42;;;;;;;83.20;37.53;;;4.90;99.90;;;;;;5038710;28;20033;-68
2024/03/06 00:52:09;;;;;;;93.25;36.17;;;;;;;;;;5043591;28;20513;-68
2024/03/06 00:54:35;;;;;;;74.38;33.75;;;;;;;;;;5045488;28;20053;-68
2024/03/06 00:57:01;;;;;;;79.70;33.72;;;;;;;;;;5038658;28;20033;-68
2024/03/06 00:59:28;;;;;;;88.30;36.78;;;4.90;99.90;;;;;;5038745;28;20128;-68
2024/03/06 01:01:56;;;;;;;84.05;33.40;;;;;;;;;;5038753;28;20036;-68
2024/03/06 01:04:22;;;;;;;87.50;35.22;;;4.80;99.90;;;;;;5038571;28;20088;-68
2024/03/06 01:06:47;;;;;;;89.30;34.65;;;4.90;99.90;;;;;;5038337;28;20356;-67
2024/03/06 01:09:13;;;;;;;84.57;33.50;;;5.00;99.90;;;;;;5039569;28;20025;-67
2024/03/06 01:11:39;;;;;;;89.32;36.47;;;;;;;;;;5041972;28;20060;-67
2024/03/06 01:14:05;;;;;;;90.97;36.45;;;4.80;99.90;;;;;;5042192;28;20053;-70
2024/03/06 01:16:31;;;;;;;92.75;37.00;;;;;;;;;;5042397;28;20243;-69
2024/03/06 01:18:57;;;;;;;92.43;36.20;;;;;;;;;;5042337;28;20096;-67
2024/03/06 01:21:23;;;;;;;90.38;36.50;;;;;;;;;;5041884;28;20221;-67
2024/03/06 01:23:49;;;;;;;96.32;37.28;;;;;;;;;;5042024;28;20041;-66
2024/03/06 01:26:16;;;;;;;83.10;36.13;;;;;;;;;;5041630;28;20032;-69
2024/03/06 01:28:42;;;;;;;85.78;37.13;;;;;;;;;;5041943;28;20029;-68
2024/03/06 01:31:10;;;;;;;90.25;35.90;;;;;;;;;;5042016;28;20028;-69
2024/03/06 01:33:35;;;;;;;91.72;38.33;;;;;;;;;;5030568;28;20033;-67
2024/03/06 01:36:01;;;;;;;90.65;36.42;;;4.90;99.90;;;;;;5021894;28;20061;-68
2024/03/06 01:38:27;;;;;;;87.55;37.08;;;;;;;;;;5024003;28;20401;-67
2024/03/06 01:40:53;;;;;;;88.90;35.03;;;;;;;;;;5041812;28;20096;-67
2024/03/06 01:43:21;;;;;;;89.82;36.25;;;4.70;99.90;;;;;;5041193;28;20043;-67
2024/03/06 01:45:48;;;;;;;83.22;33.50;;;;;;;;;;5041623;28;20033;-67
2024/03/06 01:48:14;;;;;;;83.10;34.03;;;;;;;;;;5041272;28;20261;-67
2024/03/06 01:50:41;;;;;;;85.25;35.10;;;4.80;99.90;;;;;;5041281;28;20191;-67
2024/03/06 01:53:07;;;;;;;91.05;38.28;;;5.70;99.90;;;;;;5041250;28;20025;-67
2024/03/06 01:55:34;;;;;;;93.38;38.00;;;;;;;;;;5041567;28;20285;-67
2024/03/06 01:58:01;;;;;;;88.63;36.05;;;4.70;99.90;;;;;;5041493;28;20041;-68
2024/03/06 02:00:27;;;;;;;89.47;33.90;;;;;;;;;;5041294;28;20084;-67
2024/03/06 02:02:54;;;;;;;86.68;35.13;;;4.90;99.90;;;;;;5041348;28;20024;-67
2024/03/06 02:05:20;;;;;;;85.32;35.85;;;;;;;;;;5041024;28;20029;-68
2024/03/06 02:07:47;;;;;;;80.43;34.28;;;4.50;99.90;;;;;;5040975;28;20283;-67
2024/03/06 02:10:13;;;;;;;81.78;35.47;;;4.40;99.90;;;;;;5041221;28;20030;-68
2024/03/06 02:12:39;;;;;;;78.35;36.17;;;;;;;;;;5040997;28;20036;-66
2024/03/06 02:15:08;;;;;;;90.68;36.92;;;4.30;99.90;;;;;;5041285;28;20032;-67
2024/03/06 02:17:34;;;;;;;89.05;35.03;;;4.30;99.90;;;;;;5041248;28;20026;-67
2024/03/06 02:20:00;;;;;;;96.75;39.67;;;;;;;;;;5040836;28;20033;-67
2024/03/06 02:22:26;;;;;;;99.40;36.60;;;;;;;;;;5040430;28;20033;-67
2024/03/06 02:24:52;;;;;;;98.15;36.63;;;4.40;99.90;;;;;;5041007;28;20143;-67
2024/03/06 02:27:18;;;;;;;98.60;36.92;;;;;;;;;;5040936;28;20285;-67
2024/03/06 02:29:43;;;;;;;96.07;36.50;;;4.40;99.90;;;;;;5040784;28;20021;-67
2024/03/06 02:32:12;;;;;;;92.47;37.08;;;4.20;99.90;;;;;;5041195;28;20044;-67
2024/03/06 02:34:37;;;;;;;105.97;39.17;;;4.30;99.90;;;;;;5020718;28;20032;-66
2024/03/06 02:37:03;;;;;;;110.05;40.25;;;4.30;99.90;;;;;;5021063;28;20022;-65
2024/03/06 02:39:29;;;;;;;95.70;36.45;;;;;;;;;;5020780;28;20338;-67
2024/03/06 02:41:55;;;;;;;102.13;37.97;;;;;;;;;;5021070;28;20096;-66
2024/03/06 02:44:22;;;;;;;101.13;37.15;;;;;;;;;;5020863;28;20057;-67
2024/03/06 02:46:49;;;;;;;97.18;37.08;;;4.30;99.90;;;;;;5025629;28;20041;-66
2024/03/06 02:49:16;;;;;;;99.97;38.55;;;4.30;99.90;;;;;;5040721;28;20025;-64
2024/03/06 02:51:42;;;;;;;89.85;36.88;;;;;;;;;;5040432;28;20537;-65
2024/03/06 02:54:08;;;;;;;83.90;32.63;;;;;;;;;;5040518;28;20033;-66
2024/03/06 02:56:34;;;;;;;90.55;36.40;;;;;;;;;;5040722;28;20041;-65
2024/03/06 02:59:02;;;;;;;90.95;37.63;;;;;;;;;;5040519;28;20199;-66
2024/03/06 03:01:28;;;;;;;93.97;36.50;;;4.30;99.90;;;;;;5040738;28;20026;-67
2024/03/06 03:03:54;;;;;;;82.75;36.33;;;;;;;;;;5040901;28;20049;-68
2024/03/06 03:06:20;;;;;;;88.25;36.97;;;;;;;;;;5041008;28;20040;-65
2024/03/06 03:08:47;;;;;;;96.60;36.88;;;4.30;99.90;;;;;;5040944;28;20205;-66
2024/03/06 03:11:13;;;;;;;92.97;37.45;;;4.20;99.90;;;;;;5040958;28;20036;-66
2024/03/06 03:13:39;;;;;;;100.35;39.17;;;4.20;99.90;;;;;;5040905;28;20055;-64
2024/03/06 03:16:05;;;;;;;85.88;35.58;;;;;;;;;;5041510;28;20358;-65
2024/03/06 03:18:31;;;;;;;91.63;36.13;;;4.10;99.90;;;;;;5041610;28;20067;-65
2024/03/06 03:20:56;;;;;;;97.80;37.30;;;4.20;99.90;;;;;;5041335;28;20021;-65
2024/03/06 03:23:23;;;;;;;92.20;38.45;;;4.20;99.90;;;;;;5041533;28;20060;-66
2024/03/06 03:25:49;;;;;;;94.63;36.42;;;;;;;;;;5041677;28;20078;-66
2024/03/06 03:28:15;;;;;;;101.15;38.38;;;3.90;99.90;;;;;;5043565;28;20028;-67
2024/03/06 03:30:44;;;;;;;104.05;37.50;;;3.80;99.90;;;;;;5044138;28;20033;-67
2024/03/06 03:33:10;;;;;;;76.20;29.13;;;;;;;;;;5042700;28;20030;-66
2024/03/06 03:35:36;;;;;;;88.85;34.35;;;;;;;;;;5043706;28;20103;-68
2024/03/06 03:38:01;;;;;;;97.47;36.13;;;4.00;99.90;;;;;;5043018;28;20025;-68
2024/03/06 03:40:27;;;;;;;88.32;35.13;;;4.00;99.90;;;;;;5044335;28;20036;-68
2024/03/06 03:42:53;;;;;;;85.85;35.17;;;4.10;99.90;;;;;;5044322;28;20025;-68
2024/03/06 03:45:20;;;;;;;91.22;36.47;;;;;;;;;;5042122;28;20364;-67
2024/03/06 03:47:45;;;;;;;95.70;35.83;;;4.20;99.90;;;;;;5043918;28;20020;-66
2024/03/06 03:50:12;;;;;;;96.53;38.40;;;;;;;;;;5041306;28;20030;-68
2024/03/06 03:52:41;;;;;;;98.07;36.78;;;;;;;;;;5045219;28;20075;-67
2024/03/06 03:55:07;;;;;;;98.40;38.05;;;;;;;;;;5040151;28;20066;-66
2024/03/06 03:57:33;;;;;;;109.00;40.22;;;4.10;99.90;;;;;;5042961;28;20033;-66
2024/03/06 03:59:59;;;;;;;95.15;36.72;;;3.90;99.90;;;;;;5043887;28;20424;-66
2024/03/06 04:02:25;;;;;;;98.75;35.13;;;;;;;;;;5043125;28;20022;-67
2024/03/06 04:04:52;;;;;;;88.28;36.47;;;3.90;99.90;;;;;;5043705;28;20052;-66
2024/03/06 04:07:19;;;;;;;102.50;38.17;;;;;;;;;;5043666;28;20017;-67
2024/03/06 04:09:47;;;;;;;100.93;38.13;;;4.10;99.90;;;;;;5043511;28;20036;-67
2024/03/06 04:12:13;;;;;;;100.60;37.78;;;;;;;;;;5043207;28;20017;-66
2024/03/06 04:14:39;;;;;;;107.38;37.50;;;;;;;;;;5043625;28;20052;-67
2024/03/06 04:17:05;;;;;;;101.75;36.97;;;4.30;99.90;;;;;;5042906;28;20022;-66
2024/03/06 04:19:31;;;;;;;100.35;36.95;;;4.00;99.90;;;;;;5043312;28;20222;-66
2024/03/06 04:21:57;;;;;;;95.47;35.38;;;;;;;;;;5042463;28;20045;-67
2024/03/06 04:24:23;;;;;;;95.72;35.63;;;;;;;;;;5042501;28;20033;-67
2024/03/06 04:26:49;;;;;;;93.88;34.55;;;;;;;;;;5042146;28;20033;-67
2024/03/06 04:29:15;;;;;;;87.07;34.63;;;3.90;99.90;;;;;;5042172;28;20070;-67
2024/03/06 04:31:41;;;;;;;82.03;34.50;;;3.90;99.90;;;;;;5041859;28;20560;-67
2024/03/06 04:34:07;;;;;;;92.82;34.70;;;;;;;;;;5026394;28;20034;-65
2024/03/06 04:36:33;;;;;;;91.18;35.50;;;;;;;;;;5022034;28;20384;-64
2024/03/06 04:38:59;;;;;;;101.47;35.78;;;4.00;99.90;;;;;;5022145;28;20089;-66
2024/03/06 04:41:25;;;;;;;88.63;32.83;;;;;;;;;;5021853;28;20037;-69
2024/03/06 04:43:52;;;;;;;89.85;37.15;;;;;;;;;;5023278;28;20033;-67
2024/03/06 04:46:18;;;;;;;90.13;34.75;;;4.30;99.90;;;;;;5035134;28;20053;-69
2024/03/06 04:48:44;;;;;;;93.10;36.15;;;4.30;99.90;;;;;;5046429;28;20072;-68
2024/03/06 04:51:10;;;;;;;101.82;37.20;;;4.30;99.90;;;;;;5045879;28;20325;-68
2024/03/06 04:53:36;;;;;;;95.20;36.53;;;5.00;99.90;;;;;;5045664;28;20109;-65
2024/03/06 04:56:02;;;;;;;103.68;37.75;;;;;;;;;;5044406;28;20325;-65
2024/03/06 04:58:28;;;;;;;107.88;38.72;;;;;;;;;;5042998;28;20029;-67
2024/03/06 05:00:54;;;;;;;95.25;35.75;;;;;;;;;;5042635;28;20180;-66
2024/03/06 05:03:22;;;;;;;94.57;36.35;;;;;;;;;;5042480;28;20138;-67
2024/03/06 05:05:48;;;;;;;93.15;37.53;;;;;;;;;;5042110;28;20341;-65
2024/03/06 05:08:14;;;;;;;89.47;35.42;;;4.30;99.90;;;;;;5042640;28;20185;-64
2024/03/06 05:10:40;;;;;;;88.00;34.50;;;4.70;99.90;;;;;;5042673;28;20323;-65
2024/03/06 05:13:06;;;;;;;86.65;35.13;;;;;;;;;;5042554;28;20029;-66
2024/03/06 05:15:32;;;;;;;88.45;35.35;;;4.40;99.90;;;;;;5042378;28;20076;-65
2024/03/06 05:17:58;;;;;;;86.95;36.47;;;;;;;;;;5042441;28;20086;-65
2024/03/06 05:20:24;;;;;;;93.82;36.22;;;4.10;99.90;;;;;;5042031;28;20045;-65
2024/03/06 05:22:50;;;;;;;89.20;35.55;;;;;;;;;;5042207;28;20025;-64
2024/03/06 05:25:16;;;;;;;83.90;33.70;;;;;;;;;;5042174;28;20443;-65
2024/03/06 05:27:42;;;;;;;78.03;34.67;;;;;;;;;;5041742;28;20352;-67
2024/03/06 05:30:08;;;;;;;85.72;35.20;;;4.40;99.90;;;;;;5042088;28;20044;-64
2024/03/06 05:32:34;;;;;;;80.40;33.05;;;4.40;99.90;;;;;;5038824;28;20034;-64
2024/03/06 05:35:00;;;;;;;82.60;33.53;;;;;;;;;;5020655;28;20052;-64
2024/03/06 05:37:28;;;;;;;93.45;37.92;;;;;;;;;;5032190;28;20025;-63
2024/03/06 05:39:54;;;;;;;83.07;34.75;;;;;;;;;;5041891;28;20122;-67
2024/03/06 05:42:20;;;;;;;91.32;35.80;;;4.50;99.90;;;;;;5041566;28;20314;-64
2024/03/06 05:44:48;;;;;;;89.28;34.38;;;;;;;;;;5040119;28;20090;-64
2024/03/06 05:47:14;;;;;;;75.15;31.98;;;;;;;;;;5040182;28;20021;-64
2024/03/06 05:49:40;;;;;;;77.60;33.63;;;;;;;;;;5041580;28;20075;-64
2024/03/06 05:52:06;;;;;;;72.93;31.48;;;;;;;;;;5041594;28;20072;-66
2024/03/06 05:54:35;;;;;;;73.97;31.42;;;;;;;;;;5041692;28;20332;-66
2024/03/06 05:57:00;;;;;;;77.23;32.83;;;3.90;99.90;;;;;;5040684;28;20029;-66
2024/03/06 05:59:26;;;;;;;80.80;35.33;;;;;;;;;;5041448;28;20191;-66
2024/03/06 06:01:53;;;;;;;149.98;30.90;;;;;;;;;;5041502;28;20032;-64
2024/03/06 06:04:18;;;;;;;267.00;33.33;;;4.40;99.90;;;;;;5041232;28;20037;-65
2024/03/06 06:06:44;;;;;;;282.85;32.22;;;;;;;;;;5041077;28;20037;-62
2024/03/06 06:09:15;;;;;;;277.67;30.67;;;;;;;;;;5041091;28;20204;-62
2024/03/06 06:11:41;;;;;;;312.58;32.20;;;;;;;;;;5041127;28;20029;-63
2024/03/06 06:14:07;;;;;;;408.85;34.45;;;4.40;99.90;;;;;;5040831;28;20029;-63
2024/03/06 06:16:37;;;;;;;317.45;31.98;;;4.30;99.90;;;;;;5041087;28;20037;-63
2024/03/06 06:19:03;;;;;;;258.50;31.98;;;;;;;;;;5041026;28;20036;-65
2024/03/06 06:21:30;;;;;;;184.10;29.73;;;;;;;;;;5041127;28;20037;-65
2024/03/06 06:23:56;;;;;;;345.17;33.95;;;4.50;99.90;;;;;;5039832;28;20051;-64
2024/03/06 06:26:21;;;;;;;453.50;36.15;;;4.40;99.90;;;;;;5020994;28;20022;-67
2024/03/06 06:28:47;;;;;;;424.77;34.88;;;4.60;99.90;;;;;;5034215;28;20075;-63
2024/03/06 06:31:14;;;;;;;310.02;32.67;;;4.80;99.90;;;;;;5025880;28;20325;-63
2024/03/06 06:33:40;;;;;;;401.38;35.83;;;4.80;99.90;;;;;;5032140;28;20105;-64
2024/03/06 06:36:06;;;;;;;444.67;35.95;;;4.70;99.90;;;;;;5036039;28;20061;-63
2024/03/06 06:38:32;;;;;;;197.48;31.80;;;4.60;99.90;;;;;;5019650;28;20038;-63
2024/03/06 06:40:58;;;;;;;265.58;34.33;;;4.60;99.90;;;;;;5020683;28;20088;-64
2024/03/06 06:43:26;;;;;;;445.10;35.72;;;4.70;99.90;;;;;;5020824;28;20021;-64
2024/03/06 06:45:52;;;;;;;262.10;33.00;;;4.70;99.90;;;;;;5026415;28;20050;-64
2024/03/06 06:48:18;;;;;;;209.55;32.42;;;4.80;99.90;;;;;;5020822;28;20115;-63
2024/03/06 06:50:44;;;;;;;381.60;34.35;;;4.80;99.90;;;;;;5020984;28;20041;-64
2024/03/06 06:53:09;;;;;;;409.23;35.33;;;4.80;99.90;;;;;;5036075;28;20030;-64
2024/03/06 06:55:36;;;;;;;391.48;36.28;;;4.80;99.90;;;;;;5054970;28;20056;-64
2024/03/06 06:58:01;;;;;;;411.13;37.75;;;5.10;99.90;;;;;;5060024;28;20035;-64
2024/03/06 07:00:28;;;;;;;281.23;32.92;;;5.10;99.90;;;;;;5060221;28;20064;-64
2024/03/06 07:02:54;;;;;;;372.52;37.45;;;;;;;;;;5046278;28;20345;-63
2024/03/06 07:05:20;;;;;;;299.73;33.88;;;;;;;;;;5038873;28;20033;-64
2024/03/06 07:07:46;;;;;;;398.83;37.40;;;5.20;99.90;;;;;;5038725;28;20341;-64
2024/03/06 07:10:12;;;;;;;268.25;33.08;;;5.50;99.90;;;;;;5039925;28;20029;-64
2024/03/06 07:12:37;;;;;;;263.45;33.53;;;5.40;99.90;;;;;;5040077;28;20017;-63
2024/03/06 07:15:03;;;;;;;283.20;33.05;;;5.50;99.90;;;;;;5039926;28;20037;-65
2024/03/06 07:17:29;;;;;;;348.40;38.03;;;5.50;99.90;;;;;;5039632;28;20025;-63
2024/03/06 07:19:55;;;;;;;429.92;39.10;;;5.60;99.90;;;;;;5039682;28;20037;-64
2024/03/06 07:22:22;;;;;;;230.82;33.63;;;;;;;;;;5039688;28;20029;-64
2024/03/06 07:24:48;;;;;;;322.70;34.83;;;5.90;99.90;;;;;;5038203;28;20065;-63
2024/03/06 07:27:13;;;;;;;258.55;34.28;;;6.00;99.90;;;;;;5034951;28;20245;-63
2024/03/06 07:29:39;;;;;;;150.15;34.80;;;6.00;99.90;;;;;;5037690;28;20097;-63
2024/03/06 07:32:05;;;;;;;150.25;37.42;;;6.00;99.90;;;;;;5039477;28;20367;-64
2024/03/06 07:34:31;;;;;;;91.93;37.13;;;6.00;99.90;;;;;;5020614;28;20182;-64
2024/03/06 07:36:59;;;;;;;147.10;37.45;;;6.10;99.90;;;;;;5033635;28;20300;-63
2024/03/06 07:39:25;;;;;;;193.27;36.45;;;6.10;99.90;;;;;;5039376;28;20071;-63
2024/03/06 07:41:51;;;;;;;113.75;34.92;;;;;;;;;;5039498;28;20298;-67
2024/03/06 07:44:17;;;;;;;113.25;39.45;;;6.10;99.90;;;;;;5039281;28;20099;-66
2024/03/06 07:46:43;;;;;;;144.90;37.95;;;6.20;99.90;;;;;;5039432;28;20077;-63
2024/03/06 07:49:08;;;;;;;102.47;36.25;;;6.60;99.90;;;;;;5039328;28;20040;-65
2024/03/06 07:51:35;;;;;;;106.85;38.58;;;6.50;99.90;;;;;;5039373;28;20025;-63
2024/03/06 07:54:01;;;;;;;111.35;39.63;;;6.60;99.90;;;;;;5039242;28;20233;-63
2024/03/06 07:56:28;;;;;;;163.18;34.42;;;6.90;99.90;;;;;;5037931;28;20030;-64
2024/03/06 07:58:54;;;;;;;170.32;33.38;;;6.80;99.90;;;;;;5037771;28;20233;-63
2024/03/06 08:01:23;;;;;;;114.68;35.30;;;6.90;99.90;;;;;;5039157;28;20462;-63
2024/03/06 08:03:49;;;;;;;87.25;37.55;;;7.00;99.90;;;;;;5039051;28;20033;-63
2024/03/06 08:06:17;;;;;;;88.80;36.10;;;7.20;99.90;;;;;;5037733;28;20037;-63
2024/03/06 08:08:44;;;;;;;90.97;35.77;;;7.30;99.90;;;;;;5039054;28;20207;-64
2024/03/06 08:11:12;;;;;;;85.60;32.95;;;7.30;99.90;;;;;;5039159;28;20053;-64
2024/03/06 08:13:38;;;;;;;82.82;30.05;;;7.40;99.90;;;;;;5039422;28;20037;-64
2024/03/06 08:16:07;;;;;;;103.32;30.58;;;7.50;99.90;;;;;;5039231;28;20021;-64
2024/03/06 08:18:34;;;;;;;;;;;7.60;99.90;;;;;;5039326;28;20334;-64
2024/03/06 08:21:00;;;;;;;60.08;27.88;;;7.50;99.90;;;;;;5043302;28;19909;-63
2024/03/06 08:23:26;;;;;;;68.57;32.63;;;7.50;99.90;;;;;;5043242;28;20064;-63
2024/03/06 08:25:55;;;;;;;181.73;33.25;;;7.50;99.90;;;;;;5042826;28;20029;-66
2024/03/06 08:28:21;;;;;;;79.35;32.35;;;7.50;99.90;;;;;;5042835;28;20060;-64
2024/03/06 08:30:51;;;;;;;91.30;34.00;;;7.50;99.90;;;;;;5043250;28;20045;-63
2024/03/06 08:33:17;;;;;;;84.45;34.70;;;7.60;99.90;;;;;;5033961;28;20061;-64
2024/03/06 08:35:43;;;;;;;71.43;33.47;;;7.70;99.90;;;;;;5023227;28;20361;-63
2024/03/06 08:38:09;;;;;;;70.65;31.85;;;7.90;99.90;;;;;;5038251;28;20254;-64
2024/03/06 08:40:35;;;;;;;68.22;34.08;;;8.00;99.90;;;;;;5023216;28;20037;-63
2024/03/06 08:43:01;;;;;;;62.92;31.20;;;8.10;99.90;;;;;;5022902;28;20376;-64
2024/03/06 08:45:26;;;;;;;62.97;31.77;;;8.40;99.90;;;;;;5041177;28;20120;-63
2024/03/06 08:47:54;;;;;;;66.00;33.50;;;8.60;99.90;;;;;;5042805;28;20019;-68
2024/03/06 08:50:20;;;;;;;63.92;33.08;;;8.70;99.90;;;;;;5042823;28;20035;-67
2024/03/06 08:52:46;;;;;;;61.55;31.08;;;9.60;99.90;;;;;;5042831;28;20030;-63
2024/03/06 08:55:11;;;;;;;60.03;32.60;;;8.90;99.90;;;;;;5041529;28;20029;-64
2024/03/06 08:57:38;;;;;;;58.17;30.15;;;8.90;99.90;;;;;;5042490;28;20073;-64
2024/03/06 09:00:08;;;;;;;59.00;29.70;;;9.00;99.90;;;;;;5042537;28;20210;-64
2024/03/06 09:02:40;;;;;;;64.35;32.70;;;9.10;99.90;;;;;;5042182;28;20085;-64
2024/03/06 09:05:12;;;;;;;59.50;31.80;;;9.10;99.90;;;;;;5042422;28;20041;-64
2024/03/06 09:07:40;;;;;;;56.15;30.52;;;9.20;99.90;;;;;;5042428;28;20048;-64
2024/03/06 09:10:06;;;;;;;59.20;32.05;;;9.40;99.90;;;;;;5042291;28;20404;-64
2024/03/06 09:12:32;;;;;;;57.05;31.88;;;9.60;99.90;;;;;;5042339;28;20033;-64
2024/03/06 09:15:00;;;;;;;58.40;31.52;;;9.70;99.90;;;;;;5042133;28;20083;-64
2024/03/06 09:17:26;;;;;;;57.08;30.73;;;9.90;99.90;;;;;;5042328;28;20017;-64
2024/03/06 09:19:52;;;;;;;54.08;31.95;;;9.90;99.90;;;;;;5042390;28;20030;-67
2024/03/06 09:22:17;;;;;;;50.10;29.48;;;10.10;99.90;;;;;;5040783;28;20036;-65
2024/03/06 09:24:43;;;;;;;50.55;29.73;;;10.10;99.90;;;;;;5041951;28;20095;-64
2024/03/06 09:27:09;;;;;;;52.20;29.55;;;10.10;99.90;;;;;;5042118;28;20041;-65
2024/03/06 09:29:34;;;;;;;52.20;28.45;;;10.10;99.90;;;;;;5040793;28;20368;-65
2024/03/06 09:32:00;;;;;;;52.88;30.35;;;10.00;99.90;;;;;;5042690;28;20037;-64
2024/03/06 09:34:26;;;;;;;50.13;30.02;;;9.80;99.90;;;;;;5039751;28;20018;-64
2024/03/06 09:36:52;;;;;;;57.55;29.20;;;;;;;;;;5043775;28;20058;-65
2024/03/06 09:39:20;;;;;;;59.35;31.63;;;9.70;99.90;;;;;;5043949;28;20137;-70
2024/03/06 09:41:53;;;;;;;56.33;30.45;;;9.70;99.90;;;;;;5042501;28;20387;-65
2024/03/06 09:44:21;;;;;;;53.58;30.30;;;9.80;99.90;;;;;;5044198;28;20033;-64
2024/03/06 09:46:49;;;;;;;56.17;29.35;;;9.90;99.90;;;;;;5043783;28;20099;-64
2024/03/06 09:49:17;;;;;;;58.97;31.35;;;9.90;99.90;;;;;;5044212;28;20025;-70
2024/03/06 09:51:49;;;;;;;51.38;29.55;;;9.90;99.90;;;;;;5043979;28;20029;-70
2024/03/06 09:54:16;;;;;;;54.38;31.08;;;10.10;99.90;;;;;;5056321;28;20041;-66
2024/03/06 09:56:45;;;;;;;53.60;30.88;;;10.30;99.90;;;;;;5043478;28;20041;-72
2024/03/06 09:59:11;;;;;;;47.85;26.75;;;10.80;99.90;;;;;;5041868;28;20043;-69
2024/03/06 10:01:45;;;;;;;40.03;23.67;;;11.00;99.90;;;;;;5041969;28;20203;-64
2024/03/06 10:04:18;;;;;;;43.50;24.83;;;11.10;99.90;;;;;;5021663;28;20326;-64
2024/03/06 10:06:46;;;;;;;43.55;25.00;;;11.30;99.00;;;;;;5021480;28;20057;-65
2024/03/06 10:09:11;;;;;;;46.25;26.10;;;11.60;98.40;;;;;;5029606;28;20337;-64
2024/03/06 10:11:42;;;;;;;39.45;24.40;;;11.80;97.00;;;;;;5041520;28;20025;-66
2024/03/06 10:14:11;;;;;;;46.70;27.98;;;12.00;96.10;;;;;;5041499;28;20037;-65
2024/03/06 10:16:38;;;;;;;43.05;24.70;;;12.10;95.10;;;;;;5041091;28;20025;-65
2024/03/06 10:19:30;;;;;;;37.30;21.33;;;12.10;94.40;;;;;;5039826;28;20025;-65
2024/03/06 10:21:58;;;;;;;41.22;21.55;;;12.30;91.50;;;;;;5040611;28;20041;-65
2024/03/06 10:24:28;;;;;;;34.22;21.02;;;12.40;91.00;;;;;;5039326;28;20049;-65
2024/03/06 10:26:58;;;;;;;27.20;17.05;;;12.40;91.80;;;;;;5040587;28;20036;-65
2024/03/06 10:29:25;;;;;;;29.27;17.70;;;12.40;90.60;;;;;;5040556;28;20079;-64
2024/03/06 10:31:54;;;;;;;34.22;20.88;;;12.40;88.50;;;;;;5040783;28;20033;-63
2024/03/06 10:34:22;;;;;;;31.83;19.30;;;12.40;88.00;;;;;;5022826;28;20033;-64
2024/03/06 10:36:55;;;;;;;30.10;18.63;;;12.50;86.30;;;;;;5019434;28;20101;-64
2024/03/06 10:39:21;;;;;;;28.35;16.55;;;12.50;86.70;;;;;;5020638;28;20101;-64
2024/03/06 10:41:52;;;;;;;28.13;17.42;;;12.60;83.40;;;;;;5020195;28;20262;-64
2024/03/06 10:44:21;;;;;;;28.25;17.42;;;12.70;83.00;;;;;;5037779;28;20040;-64
2024/03/06 10:46:54;;;;;;;33.08;19.35;;;13.00;81.40;;;;;;5040437;28;20104;-65
2024/03/06 10:49:21;;;;;;;32.28;18.75;;;13.30;79.60;;;;;;5022389;28;20030;-65
2024/03/06 10:51:47;;;;;;;34.28;20.52;;;13.50;77.80;;;;;;5040074;28;20574;-65
2024/03/06 10:54:14;;;;;;;31.63;19.65;;;14.20;92.90;;;;;;5040343;28;20148;-65
2024/03/06 10:56:43;;;;;;;30.48;18.15;;;14.40;91.00;;;;;;5040909;28;20034;-65
2024/03/06 10:59:11;;;;;;;;;;;14.50;76.20;;;;;;5041862;28;20026;-66
2024/03/06 11:01:38;;;;;;;26.77;17.80;;;15.00;88.30;;;;;;5040907;28;19955;-65
2024/03/06 11:04:06;;;;;;;30.85;18.05;;;15.50;84.80;;;;;;5040630;28;20063;-65
2024/03/06 11:06:33;;;;;;;29.00;18.42;;;15.70;82.70;;;;;;5041179;28;20022;-65
2024/03/06 11:08:59;;;;;;;26.33;17.27;;;15.90;83.70;;;;;;5041222;28;20028;-66
2024/03/06 11:11:25;;;;;;;28.92;18.42;;;15.90;67.40;;;;;;5040248;28;20021;-65
2024/03/06 11:13:57;;;;;;;28.92;17.42;;;16.20;81.00;;;;;;5041549;28;20220;-66
2024/03/06 11:16:34;;;;;;;22.33;12.93;;;16.20;65.40;;;;;;5041355;28;20032;-65
2024/03/06 11:19:09;;;;;;;19.45;12.93;;;16.10;62.60;;;;;;5041700;28;20030;-69
2024/03/06 11:21:45;;;;;;;21.35;14.68;;;15.90;61.60;;;;;;5040354;28;20029;-64
2024/03/06 11:24:19;;;;;;;21.85;15.20;;;15.90;62.80;;;;;;5039929;28;20122;-64
2024/03/06 11:26:57;;;;;;;25.02;14.18;;;16.10;62.40;;;;;;5040148;28;20033;-64
2024/03/06 11:29:24;;;;;;;23.50;16.25;;;16.30;60.50;;;;;;5040087;28;20029;-64
2024/03/06 11:32:07;;;;;;;22.67;14.57;;;16.40;60.90;;;;;;5039527;28;20033;-64
2024/03/06 11:34:34;;;;;;;28.25;18.65;;;16.50;61.40;;;;;;5031686;28;20169;-64
2024/03/06 11:37:04;;;;;;;27.10;16.70;;;16.80;73.80;;;;;;5039460;28;20053;-64
2024/03/06 11:39:34;;;;;;;28.05;17.83;;;16.60;60.50;;;;;;5038304;28;20345;-65
2024/03/06 11:42:00;;;;;;;25.60;16.60;;;16.60;74.70;;;;;;5039387;28;20033;-66
2024/03/06 11:44:29;;;;;;;26.05;17.55;;;16.30;75.60;;;;;;5038022;28;20071;-64
2024/03/06 11:46:57;;;;;;;26.67;17.35;;;16.20;75.90;;;;;;5039786;28;20045;-64
2024/03/06 11:49:25;;;;;;;25.83;17.88;;;16.30;75.90;;;;;;5039744;28;20253;-64
2024/03/06 11:51:55;;;;;;;25.33;17.73;;;16.10;75.30;;;;;;5039324;28;20036;-65
2024/03/06 11:54:25;;;;;;;25.08;15.60;;;16.20;61.70;;;;;;5038811;28;20119;-65
2024/03/06 11:56:53;;;;;;;22.67;14.95;;;;;;;;;;5039562;28;20045;-65
2024/03/06 11:59:28;;;;;;;24.05;16.25;;;16.20;75.00;;;;;;5039405;28;20025;-65
2024/03/06 12:01:56;;;;;;;22.95;13.85;;;16.30;74.30;;;;;;5038169;28;20072;-65
2024/03/06 12:04:22;;;;;;;25.75;16.70;;;;;;;;;;5039572;28;20040;-66
2024/03/06 12:06:48;;;;;;;23.02;14.95;;;16.50;72.90;;;;;;5039473;28;20143;-65
2024/03/06 12:09:15;;;;;;;25.20;16.25;;;16.60;59.60;;;;;;5039241;28;20029;-65
2024/03/06 12:11:45;;;;;;;28.10;17.35;;;16.60;73.50;;;;;;5039055;28;20029;-64
2024/03/06 12:14:16;;;;;;;24.95;16.58;;;16.50;73.20;;;;;;5039939;28;20025;-64
2024/03/06 12:16:42;;;;;;;29.80;17.27;;;16.50;73.50;;;;;;5040193;28;20092;-65
2024/03/06 12:19:09;;;;;;;27.55;17.25;;;16.60;73.20;;;;;;5040607;28;20029;-65
2024/03/06 12:21:35;;;;;;;24.05;15.02;;;16.60;72.40;;;;;;5040472;28;20337;-67
2024/03/06 12:24:08;;;;;;;25.02;16.38;;;16.90;72.80;;;;;;5040257;28;20096;-68
2024/03/06 12:26:34;;;;;;;27.90;19.92;;;;;;;;;;5040140;28;20048;-65
2024/03/06 12:29:11;;;;;;;31.15;19.70;;;16.70;72.90;;;;;;5040121;28;20033;-66
2024/03/06 12:31:38;;;;;;;29.70;19.73;;;16.60;72.70;;;;;;5038770;28;20095;-66
2024/03/06 12:34:04;;;;;;;25.90;17.83;;;16.60;72.50;;;;;;5024811;28;20037;-67
2024/03/06 12:36:31;;;;;;;25.73;18.58;;;17.10;72.40;;;;;;5019893;28;20132;-65
2024/03/06 12:39:02;;;;;;;29.17;19.20;;;17.30;71.50;;;;;;5019400;28;20099;-65
2024/03/06 12:41:28;;;;;;;30.52;20.35;;;17.10;71.70;;;;;;5022825;28;20029;-65
2024/03/06 12:43:56;;;;;;;31.48;19.85;;;17.10;58.60;;;;;;5040141;28;20387;-67
2024/03/06 12:46:22;;;;;;;35.75;21.23;;;;;;;;;;5040414;28;20037;-65
2024/03/06 12:48:48;;;;;;;28.60;19.52;;;18.00;56.50;;;;;;5039635;28;20269;-65
2024/03/06 12:51:13;;;;;;;30.40;20.52;;;18.30;56.20;;;;;;5038889;28;20029;-64
2024/03/06 12:53:40;;;;;;;29.33;21.20;;;18.40;55.40;;;;;;5040990;28;20036;-65
2024/03/06 12:56:06;;;;;;;30.58;21.98;;;18.40;54.60;;;;;;5047209;28;20037;-65
2024/03/06 12:58:32;;;;;;;28.00;20.58;;;18.80;66.70;;;;;;5038570;28;20033;-65
2024/03/06 13:00:58;;;;;;;29.23;21.17;;;19.40;53.50;;;;;;5038751;28;20025;-66